LRBC Weather Reports


Display with metric or nautical units.
time (UTC)temp
F
wind
direction
speed
MPH
gust
MPH
rain 1hr
in
rain 24hr
in
rain mn
in
humidity
%
barometer
mb
20190624120921 81 360 12.0 0.0 0.00 0.00 0.00 66 1019.0
20190624113921 81 340 13.0 0.0 0.00 0.00 0.00 70 1019.0
20190624110921 79 330 13.0 0.0 0.00 0.00 0.00 74 1019.0
20190624103920 79 330 14.0 0.0 0.00 0.00 0.00 70 1019.0
20190624100920 77 350 13.0 0.0 0.00 0.00 0.00 74 1019.0
20190624093920 77 360 14.0 0.0 0.00 0.00 0.00 74 1019.0
20190624090920 77 10 12.0 0.0 0.00 0.00 0.00 74 1019.0
20190624083920 77 350 13.0 0.0 0.00 0.00 0.00 74 1019.0
20190624080920 75 350 15.0 0.0 0.00 0.00 0.00 74 1019.0
20190624073921 77 350 15.0 0.0 0.00 0.00 0.00 69 1018.0
20190624070920 75 350 14.0 0.0 0.00 0.00 0.00 74 1018.0
20190624063920 73 340 13.0 0.0 0.00 0.00 0.00 78 1018.0
20190624060920 73 340 12.0 0.0 0.00 0.00 0.00 78 1018.0
20190624053920 72 330 12.0 0.0 0.00 0.00 0.00 83 1018.0
20190624050920 70 320 10.0 0.0 0.00 0.00 0.00 88 1018.0
20190624043920 68 330 8.0 0.0 0.00 0.00 0.00 94 1018.0
20190624040920 66 310 7.0 0.0 0.00 0.00 0.00 100 1018.0
20190624033920 66 330 7.0 0.0 0.00 0.00 0.00 100 1018.0
20190624030921 66 360 6.0 0.0 0.00 0.00 0.00 94 1017.0
20190624023920 66 360 4.0 0.0 0.00 0.00 0.00 100 1017.0
20190624020920 66 330 6.0 0.0 0.00 0.00 0.00 94 1017.0
20190624013921 66 350 6.0 0.0 0.00 0.00 0.00 94 1016.0
20190624010920 66 350 6.0 0.0 0.00 0.00 0.00 94 1016.0
20190624003920 68 360 5.0 0.0 0.00 0.00 0.00 94 1016.0
20190624000921 68 360 8.0 0.0 0.00 0.00 0.00 94 1017.0
20190623233920 68 360 6.0 0.0 0.00 0.00 0.00 94 1017.0
20190623230920 70 20 8.0 0.0 0.00 0.00 0.00 88 1017.0
20190623223921 68 350 8.0 0.0 0.00 0.00 0.00 94 1017.0
20190623220921 68 280 4.0 0.0 0.00 0.00 0.00 94 1016.0
20190623213921 68 350 4.0 0.0 0.00 0.00 0.00 94 1016.0
20190623210920 68 350 8.0 0.0 0.00 0.00 0.00 94 1016.0
20190623203921 68 350 9.0 0.0 0.00 0.00 0.00 94 1016.0
20190623200921 68 300 6.0 0.0 0.00 0.00 0.00 94 1016.0
20190623193920 68 10 5.0 0.0 0.00 0.00 0.00 94 1016.0
20190623190921 68 5.0 0.0 0.00 0.00 0.00 94 1016.0
20190623183920 68 330 5.0 0.0 0.00 0.00 0.00 94 1015.0
20190623180921 68 300 9.0 0.0 0.00 0.00 0.00 88 1015.0
20190623173921 68 330 25.0 0.0 0.00 0.00 0.00 88 1016.0
20190623170920 72 350 15.0 0.0 0.00 0.00 0.00 88 1016.0
20190623163921 77 290 8.0 0.0 0.00 0.00 0.00 65 1016.0
20190623160921 86 100 8.0 0.0 0.00 0.00 0.00 55 1014.0
20190623153920 90 1.0 0.0 0.00 0.00 0.00 49 1014.0
20190623150921 88 30 4.0 0.0 0.00 0.00 0.00 52 1014.0
20190623143920 86 2.0 0.0 0.00 0.00 0.00 52 1014.0
20190623140920 90 110 4.0 0.0 0.00 0.00 0.00 49 1014.0
20190623133920 88 310 5.0 0.0 0.00 0.00 0.00 52 1015.0
20190623130920 88 350 6.0 0.0 0.00 0.00 0.00 52 1015.0
20190623123921 86 330 9.0 0.0 0.00 0.00 0.00 55 1015.0